createdAt,value
2019-02-15T00:00:47.484Z,10.85
2019-02-15T00:03:16.320Z,10.83
2019-02-15T00:05:45.093Z,10.75
2019-02-15T00:08:13.832Z,10.73
2019-02-15T00:10:42.686Z,10.72
2019-02-15T00:13:13.586Z,10.72
2019-02-15T00:15:41.149Z,10.72
2019-02-15T00:18:17.170Z,10.68
2019-02-15T00:20:56.037Z,10.65
2019-02-15T00:23:24.776Z,10.62
2019-02-15T00:25:53.729Z,10.61
2019-02-15T00:28:22.616Z,10.58
2019-02-15T00:30:51.381Z,10.57
2019-02-15T00:33:20.194Z,10.52
2019-02-15T00:35:48.958Z,10.52
2019-02-15T00:38:17.773Z,10.52
2019-02-15T00:40:46.543Z,10.45
2019-02-15T00:43:22.082Z,10.45
2019-02-15T00:45:53.273Z,10.43
2019-02-15T00:48:22.384Z,10.36
2019-02-15T00:51:00.183Z,10.37
2019-02-15T00:53:39.828Z,10.33
2019-02-15T00:56:19.847Z,10.31
2019-02-15T00:59:13.928Z,10.30
2019-02-15T01:02:07.587Z,10.32
2019-02-15T01:04:54.297Z,10.32
2019-02-15T01:07:40.492Z,10.32
2019-02-15T01:10:40.309Z,10.34
2019-02-15T01:13:12.048Z,10.34
2019-02-15T01:15:40.877Z,10.38
2019-02-15T01:18:09.661Z,10.38
2019-02-15T01:20:38.423Z,10.41
2019-02-15T01:23:07.175Z,10.39
2019-02-15T01:25:42.780Z,10.41
2019-02-15T01:28:17.613Z,10.40
2019-02-15T01:31:11.143Z,10.39
2019-02-15T01:33:57.709Z,10.38
2019-02-15T01:36:48.250Z,10.36
2019-02-15T01:39:34.130Z,10.36
2019-02-15T01:42:20.679Z,10.36
2019-02-15T01:44:54.076Z,10.36
2019-02-15T01:47:26.486Z,10.36
2019-02-15T01:49:55.301Z,10.37
2019-02-15T01:52:24.143Z,10.37
2019-02-15T01:54:52.962Z,10.36
2019-02-15T01:57:21.752Z,10.37
2019-02-15T01:59:50.561Z,10.37
2019-02-15T02:02:19.852Z,10.38
2019-02-15T02:04:48.591Z,10.37
2019-02-15T02:07:17.368Z,10.37
2019-02-15T02:09:46.108Z,10.37
2019-02-15T02:12:14.935Z,10.36
2019-02-15T02:14:44.181Z,10.36
2019-02-15T02:17:13.049Z,10.35
2019-02-15T02:19:42.279Z,10.37
2019-02-15T02:22:11.121Z,10.36
2019-02-15T02:24:39.864Z,10.36
2019-02-15T02:27:08.634Z,10.35
2019-02-15T02:29:37.367Z,10.35
2019-02-15T02:32:06.224Z,10.35
2019-02-15T02:34:35.140Z,10.34
2019-02-15T02:37:04.279Z,10.34
2019-02-15T02:39:33.132Z,10.34
2019-02-15T02:42:01.899Z,10.33
2019-02-15T02:44:31.146Z,10.34
2019-02-15T02:46:59.907Z,10.33
2019-02-15T02:49:28.648Z,10.31
2019-02-15T02:51:57.412Z,10.31
2019-02-15T02:54:26.301Z,10.30
2019-02-15T02:56:55.062Z,10.30
2019-02-15T02:59:23.800Z,10.29
2019-02-15T03:01:52.563Z,10.30
2019-02-15T03:04:21.375Z,10.29
2019-02-15T03:06:50.206Z,10.29
2019-02-15T03:09:18.981Z,10.30
2019-02-15T03:11:47.746Z,10.29
2019-02-15T03:14:16.495Z,10.28
2019-02-15T03:16:45.300Z,10.27
2019-02-15T03:19:14.065Z,10.28
2019-02-15T03:21:42.896Z,10.27
2019-02-15T03:24:11.709Z,10.26
2019-02-15T03:26:40.483Z,10.25
2019-02-15T03:29:09.216Z,10.24
2019-02-15T03:31:37.998Z,10.24
2019-02-15T03:34:06.778Z,10.23
2019-02-15T03:36:52.822Z,10.24
2019-02-15T03:39:33.170Z,10.23
2019-02-15T03:42:01.965Z,10.22
2019-02-15T03:44:30.706Z,10.22
2019-02-15T03:46:59.538Z,10.22
2019-02-15T03:49:28.278Z,10.21
2019-02-15T03:51:57.042Z,10.20
2019-02-15T03:54:25.845Z,10.20
2019-02-15T03:56:54.626Z,10.18
2019-02-15T03:59:23.360Z,10.17
2019-02-15T04:01:52.169Z,10.18
2019-02-15T04:04:20.937Z,10.17
2019-02-15T04:06:49.673Z,10.16
2019-02-15T04:09:37.726Z,10.16
2019-02-15T04:12:06.505Z,10.15
2019-02-15T04:14:35.335Z,10.15
2019-02-15T04:17:04.085Z,10.15
2019-02-15T04:19:32.929Z,10.15
2019-02-15T04:22:01.669Z,10.15
2019-02-15T04:24:30.508Z,10.14
2019-02-15T04:26:59.242Z,10.14
2019-02-15T04:29:28.013Z,10.12
2019-02-15T04:31:56.820Z,10.12
2019-02-15T04:34:25.585Z,10.11
2019-02-15T04:36:54.316Z,10.11
2019-02-15T04:39:23.146Z,10.10
2019-02-15T04:41:51.883Z,10.08
2019-02-15T04:44:20.727Z,10.09
2019-02-15T04:46:50.171Z,10.08
2019-02-15T04:49:19.010Z,10.08
2019-02-15T04:51:47.813Z,10.08
2019-02-15T04:54:16.653Z,10.06
2019-02-15T04:56:45.473Z,10.05
2019-02-15T04:59:14.311Z,10.06
2019-02-15T05:01:43.135Z,10.06
2019-02-15T05:04:11.905Z,10.05
2019-02-15T05:06:40.647Z,10.04
2019-02-15T05:09:09.420Z,10.02
2019-02-15T05:11:38.545Z,10.02
2019-02-15T05:14:07.390Z,10.00
2019-02-15T05:16:36.165Z,10.00
2019-02-15T05:19:05.008Z,10.00
2019-02-15T05:21:33.820Z,10.00
2019-02-15T05:24:02.647Z,9.99
2019-02-15T05:26:31.398Z,10.00
2019-02-15T05:29:00.169Z,10.00
2019-02-15T05:31:28.907Z,10.00
2019-02-15T05:33:57.755Z,10.02
2019-02-15T05:36:26.553Z,10.03
2019-02-15T05:38:55.344Z,10.03
2019-02-15T05:41:24.086Z,10.02
2019-02-15T05:43:52.849Z,10.04
2019-02-15T05:46:21.597Z,10.03
2019-02-15T05:48:50.374Z,10.03
2019-02-15T05:51:19.114Z,10.04
2019-02-15T05:53:47.874Z,10.04
2019-02-15T05:56:35.898Z,10.04
2019-02-15T05:59:04.753Z,10.03
2019-02-15T06:01:33.481Z,10.03
2019-02-15T06:04:02.312Z,10.04
2019-02-15T06:06:31.053Z,10.04
2019-02-15T06:08:59.818Z,10.05
2019-02-15T06:11:28.635Z,10.06
2019-02-15T06:13:57.429Z,10.06
2019-02-15T06:16:26.230Z,10.05
2019-02-15T06:18:54.974Z,10.04
2019-02-15T06:21:23.857Z,10.05
2019-02-15T06:23:52.773Z,10.05
2019-02-15T06:26:21.905Z,10.03
2019-02-15T06:28:51.736Z,10.03
2019-02-15T06:31:20.575Z,10.03
2019-02-15T06:33:49.393Z,10.03
2019-02-15T06:36:18.315Z,10.03
2019-02-15T06:38:47.072Z,10.05
2019-02-15T06:41:15.919Z,10.05
2019-02-15T06:43:44.729Z,10.04
2019-02-15T06:46:13.572Z,10.04
2019-02-15T06:48:42.313Z,10.05
2019-02-15T06:51:11.093Z,10.05
2019-02-15T06:53:39.825Z,10.05
2019-02-15T06:56:08.588Z,10.07
2019-02-15T06:58:45.591Z,10.08
2019-02-15T07:01:34.493Z,10.08
2019-02-15T07:04:07.563Z,10.08
2019-02-15T07:06:36.335Z,10.11
2019-02-15T07:09:05.556Z,10.13
2019-02-15T07:11:34.323Z,10.15
2019-02-15T07:14:03.061Z,10.19
2019-02-15T07:16:31.943Z,10.22
2019-02-15T07:19:00.675Z,10.27
2019-02-15T07:21:29.474Z,10.29
2019-02-15T07:24:01.305Z,10.31
2019-02-15T07:26:30.096Z,10.35
2019-02-15T07:28:58.839Z,10.38
2019-02-15T07:31:27.607Z,10.44
2019-02-15T07:33:56.349Z,10.48
2019-02-15T07:36:25.125Z,10.52
2019-02-15T07:38:53.889Z,10.55
2019-02-15T07:41:22.914Z,10.56
2019-02-15T07:43:51.642Z,10.59
2019-02-15T07:46:20.414Z,10.63
2019-02-15T07:48:49.146Z,10.65
2019-02-15T07:51:17.932Z,10.66
2019-02-15T07:53:46.712Z,10.70
2019-02-15T07:56:15.479Z,10.71
2019-02-15T07:58:44.292Z,10.72
2019-02-15T08:01:13.063Z,10.75
2019-02-15T08:03:41.813Z,10.78
2019-02-15T08:06:30.183Z,10.81
2019-02-15T08:08:59.231Z,10.85
2019-02-15T08:11:28.035Z,10.89
2019-02-15T08:13:56.916Z,10.94
2019-02-15T08:16:25.702Z,11.00
2019-02-15T08:18:54.442Z,11.03
2019-02-15T08:21:23.227Z,11.10
2019-02-15T08:23:52.227Z,11.15
2019-02-15T08:26:21.008Z,11.21
2019-02-15T08:28:49.822Z,11.29
2019-02-15T08:31:18.674Z,11.35
2019-02-15T08:33:47.436Z,11.40
2019-02-15T08:36:16.274Z,11.45
2019-02-15T08:38:45.090Z,11.55
2019-02-15T08:41:14.016Z,11.62
2019-02-15T08:43:42.871Z,11.65
2019-02-15T08:46:11.697Z,11.72
2019-02-15T08:48:46.198Z,11.76
2019-02-15T08:51:11.279Z,11.83
2019-02-15T08:53:40.042Z,11.88
2019-02-15T08:56:08.859Z,11.92
2019-02-15T08:58:38.939Z,11.97
2019-02-15T09:01:07.764Z,12.05
2019-02-15T09:03:36.556Z,12.10
2019-02-15T09:06:05.302Z,12.15
2019-02-15T09:08:34.166Z,12.19
2019-02-15T09:11:02.930Z,12.28
2019-02-15T09:13:31.844Z,12.31
2019-02-15T09:16:09.822Z,12.42
2019-02-15T09:18:31.309Z,12.44
2019-02-15T09:21:00.215Z,12.49
2019-02-15T09:23:29.057Z,12.54
2019-02-15T09:25:57.813Z,12.55
2019-02-15T09:28:44.144Z,12.58
2019-02-15T09:31:12.973Z,12.58
2019-02-15T09:33:41.845Z,12.59
2019-02-15T09:36:10.600Z,12.60
2019-02-15T09:38:39.379Z,12.62
2019-02-15T09:41:08.124Z,12.65
2019-02-15T09:43:36.894Z,12.66
2019-02-15T09:46:05.728Z,12.69
2019-02-15T09:48:34.516Z,12.70
2019-02-15T09:51:03.352Z,12.74
2019-02-15T09:53:32.271Z,12.78
2019-02-15T09:56:01.177Z,12.82
2019-02-15T09:58:30.227Z,12.83
2019-02-15T10:00:59.073Z,12.85
2019-02-15T10:03:27.970Z,12.87
2019-02-15T10:05:56.730Z,12.90
2019-02-15T10:08:25.646Z,12.95
2019-02-15T10:10:54.417Z,12.99
2019-02-15T10:13:23.261Z,13.02
2019-02-15T10:15:52.082Z,13.04
2019-02-15T10:18:20.896Z,13.05
2019-02-15T10:20:49.730Z,13.09
2019-02-15T10:23:18.583Z,13.10
2019-02-15T10:25:47.347Z,13.15
2019-02-15T10:28:16.116Z,13.17
2019-02-15T10:30:44.975Z,13.20
2019-02-15T10:33:13.715Z,13.24
2019-02-15T10:35:42.538Z,13.28
2019-02-15T10:38:11.298Z,13.33
2019-02-15T10:40:40.089Z,13.38
2019-02-15T10:43:08.824Z,13.42
2019-02-15T10:45:37.829Z,13.45
2019-02-15T10:48:06.585Z,13.49
2019-02-15T10:50:35.346Z,13.53
2019-02-15T10:53:04.118Z,13.56
2019-02-15T10:55:32.958Z,13.59
2019-02-15T10:58:01.722Z,13.63
2019-02-15T11:00:30.489Z,13.63
2019-02-15T11:02:59.296Z,13.66
2019-02-15T11:05:28.076Z,13.68
2019-02-15T11:07:56.810Z,13.68
2019-02-15T11:10:25.572Z,13.69
2019-02-15T11:12:54.307Z,13.71
2019-02-15T11:15:23.114Z,13.71
2019-02-15T11:17:51.879Z,13.73
2019-02-15T11:20:20.716Z,13.73
2019-02-15T11:22:49.457Z,13.73
2019-02-15T11:25:18.230Z,13.71
2019-02-15T11:27:47.049Z,13.72
2019-02-15T11:30:15.892Z,13.70
2019-02-15T11:32:44.638Z,13.70
2019-02-15T11:35:13.408Z,13.71
2019-02-15T11:37:42.221Z,13.69
2019-02-15T11:40:12.428Z,13.66
2019-02-15T11:42:41.289Z,13.64
2019-02-15T11:45:11.154Z,13.62
2019-02-15T11:47:39.907Z,13.61
2019-02-15T11:50:10.299Z,13.64
2019-02-15T11:52:38.538Z,13.62
2019-02-15T11:55:07.794Z,13.59
2019-02-15T11:57:36.601Z,13.59
2019-02-15T12:00:13.830Z,13.60
2019-02-15T12:02:36.954Z,13.60
2019-02-15T12:05:06.856Z,13.62
2019-02-15T12:07:35.578Z,13.62
2019-02-15T12:10:04.591Z,13.64
2019-02-15T12:12:33.342Z,13.65
2019-02-15T12:15:02.133Z,13.67
2019-02-15T12:17:30.907Z,13.67
2019-02-15T12:19:59.686Z,13.66
2019-02-15T12:22:28.744Z,13.68
2019-02-15T12:24:57.605Z,13.67
2019-02-15T12:27:26.987Z,13.70
2019-02-15T12:29:55.837Z,13.73
2019-02-15T12:32:24.721Z,13.73
2019-02-15T12:34:53.486Z,13.76
2019-02-15T12:37:22.231Z,13.81
2019-02-15T12:39:51.001Z,13.81
2019-02-15T12:42:19.758Z,13.80
2019-02-15T12:44:48.534Z,13.81
2019-02-15T12:47:17.311Z,13.84
2019-02-15T12:49:46.150Z,13.86
2019-02-15T12:52:14.961Z,13.86
2019-02-15T12:54:43.810Z,13.87
2019-02-15T12:57:12.620Z,13.87
2019-02-15T12:59:41.393Z,13.92
2019-02-15T13:02:10.145Z,13.95
2019-02-15T13:04:38.934Z,14.02
2019-02-15T13:07:07.680Z,14.06
2019-02-15T13:09:36.448Z,14.08
2019-02-15T13:12:05.268Z,14.09
2019-02-15T13:14:34.024Z,14.15
2019-02-15T13:17:02.812Z,14.15
2019-02-15T13:19:31.700Z,14.15
2019-02-15T13:22:00.533Z,14.16
2019-02-15T13:24:29.340Z,14.21
2019-02-15T13:26:58.244Z,14.20
2019-02-15T13:29:27.080Z,14.23
2019-02-15T13:31:56.028Z,14.18
2019-02-15T13:34:24.781Z,14.19
2019-02-15T13:36:53.620Z,14.19
2019-02-15T13:39:22.436Z,14.20
2019-02-15T13:41:51.278Z,14.22
2019-02-15T13:44:20.034Z,14.25
2019-02-15T13:46:48.807Z,14.30
2019-02-15T13:49:17.621Z,14.30
2019-02-15T13:51:46.398Z,14.32
2019-02-15T13:54:15.138Z,14.35
2019-02-15T13:56:43.974Z,14.38
2019-02-15T13:59:33.585Z,14.42
2019-02-15T14:02:02.377Z,14.45
2019-02-15T14:04:31.467Z,14.51
2019-02-15T14:07:00.238Z,14.54
2019-02-15T14:09:28.984Z,14.61
2019-02-15T14:11:57.769Z,14.66
2019-02-15T14:14:26.520Z,14.70
2019-02-15T14:16:55.337Z,14.70
2019-02-15T14:19:24.084Z,14.73
2019-02-15T14:21:52.857Z,14.77
2019-02-15T14:24:21.592Z,14.79
2019-02-15T14:26:50.447Z,14.81
2019-02-15T14:29:19.181Z,14.79
2019-02-15T14:31:47.975Z,14.85
2019-02-15T14:34:16.765Z,14.85
2019-02-15T14:36:45.739Z,14.84
2019-02-15T14:39:14.563Z,14.84
2019-02-15T14:41:43.411Z,14.85
2019-02-15T14:44:12.149Z,14.88
2019-02-15T14:46:40.985Z,14.91
2019-02-15T14:49:09.821Z,14.96
2019-02-15T14:51:38.711Z,14.99
2019-02-15T14:54:07.529Z,15.05
2019-02-15T14:56:41.854Z,15.10
2019-02-15T14:59:10.609Z,15.15
2019-02-15T15:01:39.369Z,15.22
2019-02-15T15:04:08.126Z,15.31
2019-02-15T15:06:36.909Z,15.38
2019-02-15T15:09:06.410Z,15.48
2019-02-15T15:11:35.169Z,15.58
2019-02-15T15:14:04.066Z,15.69
2019-02-15T15:16:32.851Z,15.81
2019-02-15T15:19:01.607Z,15.93
2019-02-15T15:21:30.385Z,16.03
2019-02-15T15:23:59.328Z,16.13
2019-02-15T15:26:28.111Z,16.23
2019-02-15T15:28:56.859Z,16.33
2019-02-15T15:31:25.691Z,16.40
2019-02-15T15:33:54.449Z,16.39
2019-02-15T15:36:23.239Z,16.35
2019-02-15T15:38:51.984Z,16.16
2019-02-15T15:41:20.749Z,15.97
2019-02-15T15:43:49.507Z,15.75
2019-02-15T15:46:18.502Z,15.60
2019-02-15T15:48:47.238Z,15.46
2019-02-15T15:51:16.171Z,15.33
2019-02-15T15:53:45.029Z,15.18
2019-02-15T15:56:13.862Z,15.08
2019-02-15T15:58:42.681Z,15.00
2019-02-15T16:01:11.538Z,14.91
2019-02-15T16:03:40.275Z,14.83
2019-02-15T16:06:09.025Z,14.78
2019-02-15T16:08:37.797Z,14.70
2019-02-15T16:11:06.619Z,14.65
2019-02-15T16:13:36.365Z,14.60
2019-02-15T16:16:05.135Z,14.54
2019-02-15T16:18:35.166Z,14.50
2019-02-15T16:21:04.061Z,14.43
2019-02-15T16:23:32.923Z,14.38
2019-02-15T16:26:01.671Z,14.34
2019-02-15T16:28:30.505Z,14.29
2019-02-15T16:30:59.345Z,14.25
2019-02-15T16:33:28.226Z,14.20
2019-02-15T16:35:56.991Z,14.16
2019-02-15T16:38:25.826Z,14.12
2019-02-15T16:40:59.793Z,14.09
2019-02-15T16:43:28.662Z,14.05
2019-02-15T16:45:57.413Z,14.00
2019-02-15T16:48:26.316Z,13.98
2019-02-15T16:50:55.064Z,13.94
2019-02-15T16:53:23.831Z,13.90
2019-02-15T16:55:52.651Z,13.86
2019-02-15T16:58:21.409Z,13.83
2019-02-15T17:00:50.231Z,13.81
2019-02-15T17:03:19.065Z,13.77
2019-02-15T17:05:47.894Z,13.73
2019-02-15T17:08:16.667Z,13.71
2019-02-15T17:10:45.426Z,13.69
2019-02-15T17:13:14.265Z,13.68
2019-02-15T17:15:43.016Z,13.64
2019-02-15T17:18:11.871Z,13.60
2019-02-15T17:20:40.754Z,13.59
2019-02-15T17:23:09.557Z,13.56
2019-02-15T17:25:38.298Z,13.52
2019-02-15T17:28:07.076Z,13.51
2019-02-15T17:30:35.824Z,13.49
2019-02-15T17:33:04.593Z,13.47
2019-02-15T17:35:33.336Z,13.44
2019-02-15T17:38:02.183Z,13.41
2019-02-15T17:40:31.076Z,13.39
2019-02-15T17:43:00.013Z,13.36
2019-02-15T17:45:28.837Z,13.36
2019-02-15T17:47:57.651Z,13.33
2019-02-15T17:50:26.403Z,13.29
2019-02-15T17:52:55.255Z,13.27
2019-02-15T17:55:24.073Z,13.27
2019-02-15T17:57:52.843Z,13.24
2019-02-15T18:00:26.031Z,13.23
2019-02-15T18:02:54.683Z,13.21
2019-02-15T18:05:23.429Z,13.18
2019-02-15T18:07:52.276Z,13.17
2019-02-15T18:10:21.045Z,13.16
2019-02-15T18:12:49.825Z,13.13
2019-02-15T18:15:18.613Z,13.11
2019-02-15T18:17:47.407Z,13.10
2019-02-15T18:20:16.452Z,13.09
2019-02-15T18:22:45.239Z,13.06
2019-02-15T18:25:13.977Z,13.05
2019-02-15T18:27:42.748Z,13.03
2019-02-15T18:30:30.913Z,13.02
2019-02-15T18:32:59.674Z,13.00
2019-02-15T18:35:28.426Z,12.97
2019-02-15T18:37:57.201Z,12.97
2019-02-15T18:40:26.014Z,12.94
2019-02-15T18:42:54.863Z,12.93
2019-02-15T18:45:23.979Z,12.92
2019-02-15T18:47:52.748Z,12.90
2019-02-15T18:50:21.481Z,12.88
2019-02-15T18:52:50.357Z,12.87
2019-02-15T18:55:19.089Z,12.87
2019-02-15T18:57:48.042Z,12.86
2019-02-15T19:00:17.024Z,12.84
2019-02-15T19:02:45.977Z,12.82
2019-02-15T19:05:14.852Z,12.81
2019-02-15T19:07:43.664Z,12.79
2019-02-15T19:10:14.627Z,12.78
2019-02-15T19:12:43.488Z,12.77
2019-02-15T19:15:13.249Z,12.76
2019-02-15T19:17:42.208Z,12.74
2019-02-15T19:20:11.567Z,12.73
2019-02-15T19:22:40.406Z,12.71
2019-02-15T19:25:10.812Z,12.69
2019-02-15T19:27:38.941Z,12.69
2019-02-15T19:30:13.247Z,12.66
2019-02-15T19:32:44.663Z,12.64
2019-02-15T19:35:13.540Z,12.64
2019-02-15T19:37:42.447Z,12.62
2019-02-15T19:40:18.320Z,12.63
2019-02-15T19:42:48.887Z,12.61
2019-02-15T19:45:17.798Z,12.61
2019-02-15T19:47:46.545Z,12.58
2019-02-15T19:50:16.344Z,12.57
2019-02-15T19:52:48.598Z,12.57
2019-02-15T19:55:17.523Z,12.55
2019-02-15T19:57:46.348Z,12.55
2019-02-15T20:00:22.854Z,12.53
2019-02-15T20:02:53.686Z,12.52
2019-02-15T20:05:22.554Z,12.51
2019-02-15T20:07:54.345Z,12.49
2019-02-15T20:10:26.613Z,12.47
2019-02-15T20:12:55.429Z,12.47
2019-02-15T20:15:24.665Z,12.45
2019-02-15T20:17:53.389Z,12.45
2019-02-15T20:20:25.809Z,12.42
2019-02-15T20:22:55.187Z,12.42
2019-02-15T20:25:24.112Z,12.41
2019-02-15T20:27:52.929Z,12.39
2019-02-15T20:30:21.790Z,12.38
2019-02-15T20:32:50.529Z,12.35
2019-02-15T20:35:26.460Z,12.35
2019-02-15T20:37:55.294Z,12.33
2019-02-15T20:40:24.074Z,12.31
2019-02-15T20:42:57.060Z,12.30
2019-02-15T20:45:22.501Z,12.29
2019-02-15T20:47:54.347Z,12.24
2019-02-15T20:50:25.977Z,12.23
2019-02-15T20:52:54.797Z,12.24
2019-02-15T20:55:23.572Z,12.24
2019-02-15T20:57:52.317Z,12.24
2019-02-15T21:00:23.117Z,12.21
2019-02-15T21:02:51.874Z,12.20
2019-02-15T21:05:21.057Z,12.16
2019-02-15T21:07:49.877Z,12.14
2019-02-15T21:10:18.673Z,12.14
2019-02-15T21:12:47.851Z,12.14
2019-02-15T21:15:19.757Z,12.14
2019-02-15T21:17:48.767Z,12.11
2019-02-15T21:20:17.567Z,12.10
2019-02-15T21:22:46.344Z,12.07
2019-02-15T21:25:15.292Z,12.07
2019-02-15T21:27:44.059Z,12.05
2019-02-15T21:30:16.029Z,12.02
2019-02-15T21:32:44.893Z,12.01
2019-02-15T21:35:13.733Z,11.98
2019-02-15T21:37:42.490Z,11.99
2019-02-15T21:40:13.400Z,11.96
2019-02-15T21:42:44.374Z,11.96
2019-02-15T21:45:15.691Z,11.95
2019-02-15T21:47:44.492Z,11.93
2019-02-15T21:50:17.169Z,11.93
2019-02-15T21:52:44.791Z,11.90
2019-02-15T21:55:17.717Z,11.90
2019-02-15T21:57:48.711Z,11.87
2019-02-15T22:00:18.513Z,11.87
2019-02-15T22:02:47.287Z,11.86
2019-02-15T22:05:20.301Z,11.82
2019-02-15T22:07:49.110Z,11.79
2019-02-15T22:10:20.665Z,11.78
2019-02-15T22:12:49.439Z,11.75
2019-02-15T22:15:18.262Z,11.73
2019-02-15T22:17:49.293Z,11.72
2019-02-15T22:20:26.307Z,11.73
2019-02-15T22:22:48.692Z,11.70
2019-02-15T22:25:17.429Z,11.68
2019-02-15T22:27:46.208Z,11.68
2019-02-15T22:30:24.547Z,11.69
2019-02-15T22:32:53.309Z,11.65
2019-02-15T22:35:27.661Z,11.64
2019-02-15T22:37:56.503Z,11.63
2019-02-15T22:40:36.153Z,11.60
2019-02-15T22:43:08.156Z,11.62
2019-02-15T22:45:36.892Z,11.59
2019-02-15T22:48:05.663Z,11.56
2019-02-15T22:50:36.326Z,11.56
2019-02-15T22:53:05.042Z,11.55
2019-02-15T22:55:33.786Z,11.52
2019-02-15T22:58:04.574Z,11.51
2019-02-15T23:00:56.479Z,11.48
2019-02-15T23:03:26.515Z,11.47
2019-02-15T23:05:55.444Z,11.43
2019-02-15T23:08:24.251Z,11.45
2019-02-15T23:10:52.992Z,11.44
2019-02-15T23:13:21.773Z,11.44
2019-02-15T23:15:50.510Z,11.44
2019-02-15T23:18:19.326Z,11.43
2019-02-15T23:20:48.140Z,11.39
2019-02-15T23:23:17.115Z,11.38
2019-02-15T23:25:45.930Z,11.38
2019-02-15T23:28:14.766Z,11.35
2019-02-15T23:30:43.573Z,11.33
2019-02-15T23:33:12.343Z,11.32
2019-02-15T23:35:41.104Z,11.30
2019-02-15T23:38:09.939Z,11.29
2019-02-15T23:40:38.721Z,11.28
2019-02-15T23:43:07.635Z,11.28
2019-02-15T23:45:36.533Z,11.27
2019-02-15T23:48:05.459Z,11.26
2019-02-15T23:50:34.214Z,11.25
2019-02-15T23:53:02.988Z,11.27
2019-02-15T23:55:31.729Z,11.26
2019-02-15T23:58:00.505Z,11.25
